createdAt,value
2022-08-22T00:01:17.533Z,44.40
2022-08-22T00:02:55.978Z,38.18
2022-08-22T00:03:12.643Z,31.14
2022-08-22T00:06:38.279Z,44.97
2022-08-22T00:11:49.645Z,44.81
2022-08-22T00:17:17.593Z,45.71
2022-08-22T00:22:35.451Z,45.12
2022-08-22T00:28:10.187Z,44.31
2022-08-22T00:33:29.244Z,44.50
2022-08-22T00:38:35.412Z,45.00
2022-08-22T00:44:01.987Z,44.96
2022-08-22T00:49:22.458Z,45.04
2022-08-22T00:54:45.607Z,45.23
2022-08-22T01:00:14.952Z,45.27
2022-08-22T01:05:47.611Z,45.31
2022-08-22T01:10:49.858Z,45.61
2022-08-22T01:16:23.704Z,46.03
2022-08-22T01:21:52.130Z,46.73
2022-08-22T01:27:15.918Z,49.10
2022-08-22T01:32:49.496Z,50.53
2022-08-22T01:38:22.757Z,52.10
2022-08-22T01:43:59.624Z,53.20
2022-08-22T01:49:00.553Z,54.32
2022-08-22T01:54:08.334Z,54.86
2022-08-22T01:59:21.142Z,54.97
2022-08-22T02:04:47.484Z,55.32
2022-08-22T02:10:01.610Z,54.70
2022-08-22T02:15:14.949Z,55.37
2022-08-22T02:20:23.072Z,54.33
2022-08-22T02:25:36.457Z,55.14
2022-08-22T02:30:41.658Z,54.89
2022-08-22T02:35:54.912Z,54.83
2022-08-22T02:41:10.851Z,54.90
2022-08-22T02:46:32.799Z,55.80
2022-08-22T02:52:04.459Z,56.08
2022-08-22T02:57:14.785Z,57.46
2022-08-22T03:02:40.321Z,56.13
2022-08-22T03:07:49.500Z,55.24
2022-08-22T03:13:00.776Z,54.67
2022-08-22T03:18:40.277Z,54.85
2022-08-22T03:23:57.006Z,54.39
2022-08-22T03:29:35.342Z,53.61
2022-08-22T03:34:38.779Z,53.13
2022-08-22T03:39:51.689Z,53.40
2022-08-22T03:45:32.732Z,54.09
2022-08-22T03:50:54.444Z,54.11
2022-08-22T03:56:36.748Z,54.21
2022-08-22T04:02:24.797Z,53.50
2022-08-22T04:07:42.729Z,53.23
2022-08-22T04:13:16.130Z,52.07
2022-08-22T04:18:38.231Z,51.35
2022-08-22T04:23:52.424Z,49.89
2022-08-22T04:29:05.056Z,49.83
2022-08-22T04:34:19.077Z,49.61
2022-08-22T04:39:34.774Z,49.54
2022-08-22T04:44:44.846Z,49.25
2022-08-22T04:49:56.304Z,49.36
2022-08-22T04:54:58.451Z,48.85
2022-08-22T05:00:07.023Z,48.68
2022-08-22T05:05:13.993Z,49.25
2022-08-22T05:10:19.214Z,49.08
2022-08-22T05:15:27.916Z,48.62
2022-08-22T05:20:31.530Z,48.39
2022-08-22T05:25:36.379Z,48.79
2022-08-22T05:30:39.552Z,48.13
2022-08-22T05:35:52.459Z,48.04
2022-08-22T05:41:08.171Z,48.57
2022-08-22T05:46:36.075Z,49.71
2022-08-22T05:52:00.286Z,51.57
2022-08-22T05:57:17.539Z,51.30
2022-08-22T06:02:30.084Z,50.29
2022-08-22T06:07:42.026Z,49.42
2022-08-22T06:13:03.948Z,51.16
2022-08-22T06:18:09.590Z,50.73
2022-08-22T06:23:16.700Z,50.92
2022-08-22T06:28:23.503Z,50.66
2022-08-22T06:33:31.563Z,49.80
2022-08-22T06:39:06.475Z,49.72
2022-08-22T06:44:10.789Z,49.95
2022-08-22T06:49:13.747Z,50.20
2022-08-22T06:54:22.552Z,50.06
2022-08-22T06:59:28.652Z,50.16
2022-08-22T07:04:31.919Z,49.24
2022-08-22T07:09:41.725Z,49.61
2022-08-22T07:14:49.828Z,51.43
2022-08-22T07:20:22.684Z,49.66
2022-08-22T07:25:25.812Z,49.06
2022-08-22T07:30:39.918Z,47.18
2022-08-22T07:35:53.225Z,45.55
2022-08-22T07:41:12.416Z,44.58
2022-08-22T07:46:18.895Z,44.42
2022-08-22T07:51:35.827Z,43.64
2022-08-22T07:57:02.189Z,43.15
2022-08-22T08:02:09.429Z,42.27
2022-08-22T08:07:14.761Z,42.25
2022-08-22T08:12:19.668Z,42.17
2022-08-22T08:17:32.232Z,41.59
2022-08-22T08:22:35.091Z,41.63
2022-08-22T08:27:57.410Z,41.62
2022-08-22T08:33:24.942Z,41.38
2022-08-22T08:38:26.855Z,40.52
2022-08-22T08:43:51.161Z,40.95
2022-08-22T08:49:08.783Z,40.44
2022-08-22T08:54:29.690Z,40.19
2022-08-22T09:00:12.303Z,39.98
2022-08-22T09:05:48.568Z,38.78
2022-08-22T09:11:15.997Z,39.80
2022-08-22T09:16:30.781Z,39.23
2022-08-22T09:22:14.689Z,38.29
2022-08-22T09:27:39.664Z,37.63
2022-08-22T09:32:57.528Z,37.55
2022-08-22T09:38:23.885Z,37.39
2022-08-22T09:43:48.770Z,37.68
2022-08-22T09:49:12.873Z,37.17
2022-08-22T09:54:20.989Z,36.47
2022-08-22T09:59:44.174Z,36.33
2022-08-22T10:04:58.196Z,36.95
2022-08-22T10:10:14.100Z,36.43
2022-08-22T10:15:25.731Z,35.77
2022-08-22T10:20:42.778Z,35.31
2022-08-22T10:25:57.200Z,34.97
2022-08-22T10:31:09.489Z,35.09
2022-08-22T10:36:19.856Z,35.04
2022-08-22T10:41:32.307Z,34.39
2022-08-22T10:46:50.561Z,35.41
2022-08-22T10:52:09.679Z,34.76
2022-08-22T10:57:41.505Z,35.15
2022-08-22T11:02:45.049Z,34.66
2022-08-22T11:08:11.244Z,34.79
2022-08-22T11:13:28.562Z,34.40
2022-08-22T11:19:14.696Z,34.84
2022-08-22T11:24:57.079Z,33.74
2022-08-22T11:30:19.675Z,33.45
2022-08-22T11:35:32.501Z,33.40
2022-08-22T11:41:31.498Z,33.51
2022-08-22T11:46:39.849Z,33.92
2022-08-22T11:52:17.444Z,33.38
2022-08-22T11:57:34.307Z,33.00
2022-08-22T12:02:48.163Z,32.98
2022-08-22T12:08:01.446Z,33.00
2022-08-22T12:13:35.201Z,33.36
2022-08-22T12:19:00.134Z,32.69
2022-08-22T12:24:20.774Z,32.73
2022-08-22T12:30:12.989Z,32.18
2022-08-22T12:35:40.584Z,32.52
2022-08-22T12:40:58.106Z,31.78
2022-08-22T12:46:12.953Z,31.76
2022-08-22T12:51:25.159Z,32.07
2022-08-22T12:56:54.774Z,32.54
2022-08-22T13:02:01.955Z,32.50
2022-08-22T13:07:26.872Z,32.45
2022-08-22T13:12:46.927Z,31.70
2022-08-22T13:17:51.662Z,32.16
2022-08-22T13:22:54.824Z,32.12
2022-08-22T13:28:00.799Z,32.20
2022-08-22T13:33:10.967Z,32.24
2022-08-22T13:38:26.244Z,32.39
2022-08-22T13:43:50.039Z,32.26
2022-08-22T13:49:01.000Z,33.28
2022-08-22T13:54:27.063Z,33.02
2022-08-22T13:59:53.624Z,33.55
2022-08-22T14:05:04.498Z,33.45
2022-08-22T14:10:23.867Z,33.99
2022-08-22T14:15:45.426Z,34.14
2022-08-22T14:20:49.057Z,33.88
2022-08-22T14:25:51.937Z,34.19
2022-08-22T14:31:14.628Z,33.81
2022-08-22T14:36:20.949Z,34.39
2022-08-22T14:41:52.587Z,33.80
2022-08-22T14:47:01.302Z,34.51
2022-08-22T14:52:08.789Z,34.26
2022-08-22T14:57:20.163Z,34.50
2022-08-22T15:02:32.118Z,34.70
2022-08-22T15:07:37.537Z,35.00
2022-08-22T15:12:50.106Z,34.92
2022-08-22T15:17:53.316Z,34.66
2022-08-22T15:22:59.319Z,35.32
2022-08-22T15:28:13.931Z,35.29
2022-08-22T15:33:27.060Z,35.84
2022-08-22T15:38:36.329Z,36.29
2022-08-22T15:43:48.346Z,35.90
2022-08-22T15:49:07.283Z,35.42
2022-08-22T15:54:24.898Z,35.88
2022-08-22T15:59:53.504Z,35.84
2022-08-22T16:05:25.869Z,35.99
2022-08-22T16:10:32.807Z,36.00
2022-08-22T16:16:30.530Z,35.24
2022-08-22T16:21:32.764Z,35.17
2022-08-22T16:26:43.096Z,34.88
2022-08-22T16:31:48.214Z,35.02
2022-08-22T16:37:08.884Z,35.39
2022-08-22T16:42:14.621Z,36.26
2022-08-22T16:47:42.059Z,36.38
2022-08-22T16:52:54.616Z,36.52
2022-08-22T16:58:08.928Z,37.06
2022-08-22T17:03:18.515Z,37.12
2022-08-22T17:08:36.596Z,36.81
2022-08-22T17:14:09.276Z,37.19
2022-08-22T17:19:43.734Z,37.38
2022-08-22T17:24:49.569Z,37.57
2022-08-22T17:30:10.589Z,36.90
2022-08-22T17:35:55.481Z,36.83
2022-08-22T17:41:32.464Z,37.74
2022-08-22T17:46:46.924Z,37.83
2022-08-22T17:52:15.383Z,38.06
2022-08-22T17:57:31.376Z,38.20
2022-08-22T18:02:53.861Z,38.88
2022-08-22T18:08:36.957Z,38.79
2022-08-22T18:13:33.914Z,38.65
2022-08-22T18:19:15.041Z,38.46
2022-08-22T18:24:47.098Z,38.25
2022-08-22T18:30:07.213Z,38.34
2022-08-22T18:35:15.955Z,39.13
2022-08-22T18:40:34.304Z,38.53
2022-08-22T18:45:48.955Z,39.19
2022-08-22T18:50:51.833Z,39.27
2022-08-22T18:55:57.446Z,40.22
2022-08-22T19:01:19.556Z,40.25
2022-08-22T19:06:28.672Z,40.68
2022-08-22T19:11:37.164Z,40.77
2022-08-22T19:17:04.290Z,40.78
2022-08-22T19:22:29.308Z,40.30
2022-08-22T19:27:34.243Z,41.23
2022-08-22T19:32:45.807Z,41.00
2022-08-22T19:37:53.917Z,40.92
2022-08-22T19:42:56.703Z,40.96
2022-08-22T19:48:13.630Z,41.57
2022-08-22T19:53:53.990Z,41.04
2022-08-22T19:59:14.009Z,41.72
2022-08-22T20:04:53.003Z,41.15
2022-08-22T20:10:09.444Z,42.08
2022-08-22T20:15:24.449Z,41.90
2022-08-22T20:20:35.479Z,42.49
2022-08-22T20:25:44.089Z,42.62
2022-08-22T20:30:50.737Z,42.33
2022-08-22T20:35:56.364Z,43.02
2022-08-22T20:41:13.424Z,43.54
2022-08-22T20:46:21.261Z,43.49
2022-08-22T20:51:29.499Z,43.86
2022-08-22T20:56:53.013Z,44.50
2022-08-22T21:02:16.617Z,43.86
2022-08-22T21:07:26.031Z,44.24
2022-08-22T21:12:28.376Z,44.42
2022-08-22T21:17:34.528Z,45.41
2022-08-22T21:22:41.822Z,45.87
2022-08-22T21:27:47.500Z,45.87
2022-08-22T21:32:55.551Z,46.56
2022-08-22T21:37:59.966Z,47.43
2022-08-22T21:43:05.911Z,48.27
2022-08-22T21:48:31.264Z,48.10
2022-08-22T21:53:33.517Z,48.64
2022-08-22T21:58:37.389Z,49.45
2022-08-22T22:03:39.973Z,50.16
2022-08-22T22:08:42.324Z,50.39
2022-08-22T22:13:45.268Z,50.29
2022-08-22T22:18:47.531Z,50.68
2022-08-22T22:23:50.889Z,50.62
2022-08-22T22:28:53.285Z,50.63
2022-08-22T22:33:55.603Z,50.59
2022-08-22T22:38:57.802Z,50.75
2022-08-22T22:44:03.401Z,51.14
2022-08-22T22:49:06.131Z,50.88
2022-08-22T22:54:08.422Z,51.27
2022-08-22T22:59:15.724Z,50.96
2022-08-22T23:04:19.610Z,50.40
2022-08-22T23:09:21.861Z,50.83
2022-08-22T23:14:35.156Z,51.00
2022-08-22T23:19:39.132Z,51.48
2022-08-22T23:24:42.202Z,52.41
2022-08-22T23:29:44.599Z,53.19
2022-08-22T23:34:48.943Z,53.82
2022-08-22T23:39:51.417Z,53.51
2022-08-22T23:44:53.718Z,53.67
2022-08-22T23:49:55.923Z,53.21
2022-08-22T23:54:58.203Z,53.34
